Time;durP1;ratioP1;P1;durP2;ratioP2;P2;SDS_P1;SDS_P2;PMS_P1;PMS_P2;Temp;Humidity;BMP_temperature;BMP_pressure;BME280_temperature;BME280_humidity;BME280_pressure;Samples;Min_cycle;Max_cycle;Signal;HPM_P1;HPM_P2
2023/07/07 00:04:21;;;;;;;;;;;16.10;99.90;;;;;;20834621;28;19913;-73
2023/07/07 00:14:22;;;;;;;;;;;16.00;99.90;;;;;;20838887;28;19924;-73
2023/07/07 00:24:23;;;;;;;;;;;15.50;99.90;;;;;;20837883;28;19913;-73
2023/07/07 00:34:24;;;;;;;;;;;15.60;99.90;;;;;;20837063;28;19924;-73
2023/07/07 00:44:29;;;;;;;;;;;15.70;99.90;;;;;;20834316;28;20008;-73
2023/07/07 00:54:32;;;;;;;;;;;15.70;99.90;;;;;;20836002;28;19917;-72
2023/07/07 01:04:33;;;;;;;;;;;15.60;99.90;;;;;;20836003;28;19913;-73
2023/07/07 01:14:34;;;;;;;;;;;15.50;99.90;;;;;;20833664;28;19921;-73
2023/07/07 01:24:36;;;;;;;;;;;15.50;99.90;;;;;;20832736;28;19956;-73
2023/07/07 01:34:36;;;;;;;;;;;15.60;99.90;;;;;;20830276;28;20000;-73
2023/07/07 01:44:44;;;;;;;;;;;15.40;99.90;;;;;;20829895;28;19956;-73
2023/07/07 01:54:49;;;;;;;;;;;15.30;99.90;;;;;;20827942;28;19921;-73
2023/07/07 02:04:49;;;;;;;;;;;15.30;99.90;;;;;;20829514;28;19913;-73
2023/07/07 02:14:50;;;;;;;;;;;15.30;99.90;;;;;;20776106;28;19917;-72
2023/07/07 02:24:51;;;;;;;;;;;15.20;99.90;;;;;;20744785;28;20280;-72
2023/07/07 02:34:55;;;;;;;;;;;15.00;99.90;;;;;;20745600;28;19918;-72
2023/07/07 02:44:55;;;;;;;;;;;14.90;99.90;;;;;;20809880;28;19917;-73
2023/07/07 02:54:56;;;;;;;;;;;14.80;99.90;;;;;;20825884;28;19917;-73
2023/07/07 03:04:57;;;;;;;;;;;14.70;99.90;;;;;;20825150;28;19921;-73
2023/07/07 03:14:57;;;;;;;;;;;14.70;99.90;;;;;;20826925;28;19924;-72
2023/07/07 03:25:00;;;;;;;;;;;14.50;99.90;;;;;;20888433;28;20287;-73
2023/07/07 03:35:14;;;;;;;;;;;14.60;99.90;;;;;;20903377;28;19960;-72
2023/07/07 03:45:16;;;;;;;;;;;14.40;99.90;;;;;;20835410;28;20323;-72
2023/07/07 03:55:18;;;;;;;;;;;14.30;99.90;;;;;;20822062;28;19920;-72
2023/07/07 04:05:18;;;;;;;;;;;14.40;99.90;;;;;;20821512;28;20338;-73
2023/07/07 04:15:19;;;;;;;;;;;14.50;99.90;;;;;;20801068;28;19923;-73
2023/07/07 04:25:20;;;;;;;;;;;14.40;99.90;;;;;;20802763;28;20051;-73
2023/07/07 04:35:20;;;;;;;;;;;14.40;99.90;;;;;;20823201;28;19968;-73
2023/07/07 04:45:21;;;;;;;;;;;14.50;99.90;;;;;;20829451;28;19919;-74
2023/07/07 04:55:22;;;;;;;;;;;14.50;99.90;;;;;;20838692;28;20389;-73
2023/07/07 05:05:22;;;;;;;;;;;14.80;99.90;;;;;;20833679;28;19967;-73
2023/07/07 05:15:24;;;;;;;;;;;15.20;99.90;;;;;;20829528;28;19967;-73
2023/07/07 05:25:24;;;;;;;;;;;15.60;99.90;;;;;;20830221;28;20016;-73
2023/07/07 05:35:25;;;;;;;;;;;15.80;99.90;;;;;;20929713;23;19956;-78
2023/07/07 05:45:26;;;;;;;;;;;16.00;99.90;;;;;;20986884;28;20301;-77
2023/07/07 05:55:28;;;;;;;;;;;16.40;99.90;;;;;;20980429;28;20334;-77
2023/07/07 06:05:29;;;;;;;;;;;16.40;99.90;;;;;;20999177;28;19912;-77
2023/07/07 06:15:30;;;;;;;;;;;16.70;99.90;;;;;;20970713;28;19927;-77
2023/07/07 06:25:31;;;;;;;;;;;17.10;99.90;;;;;;20985101;28;19912;-77
2023/07/07 06:35:32;;;;;;;;;;;17.50;99.90;;;;;;20970640;28;19925;-77
2023/07/07 06:45:34;;;;;;;;;;;18.40;99.90;;;;;;20955783;28;19912;-76
2023/07/07 06:55:34;;;;;;;;;;;19.20;99.90;;;;;;20981343;28;20448;-76
2023/07/07 07:05:35;;;;;;;;;;;19.50;99.90;;;;;;20986036;28;19913;-75
2023/07/07 07:15:35;;;;;;;;;;;20.00;99.90;;;;;;20982205;28;19917;-75
2023/07/07 07:25:36;;;;;;;;;;;20.50;99.90;;;;;;20973492;28;19971;-76
2023/07/07 07:35:37;;;;;;;;;;;21.30;99.90;;;;;;20961724;28;20276;-75
2023/07/07 07:45:38;;;;;;;;;;;21.10;99.90;;;;;;20952165;28;19912;-75
2023/07/07 07:55:38;;;;;;;;;;;21.80;99.90;;;;;;20970838;28;19959;-75
2023/07/07 08:05:39;;;;;;;;;;;22.50;99.90;;;;;;20988205;28;19918;-75
2023/07/07 08:15:39;;;;;;;;;;;22.70;99.90;;;;;;21002688;28;19923;-76
2023/07/07 08:25:40;;;;;;;;;;;23.40;99.90;;;;;;20996816;28;19913;-76
2023/07/07 08:35:41;;;;;;;;;;;24.20;99.90;;;;;;20987859;28;19927;-76
2023/07/07 08:45:46;;;;;;;;;;;24.30;99.90;;;;;;21001317;28;19913;-75
2023/07/07 08:56:03;;;;;;;;;;;24.80;99.90;;;;;;20993247;28;19917;-76
2023/07/07 09:06:06;;;;;;;;;;;25.70;99.90;;;;;;20975576;28;20317;-76
2023/07/07 09:16:07;;;;;;;;;;;26.60;99.90;;;;;;20988014;28;19916;-75
2023/07/07 09:26:17;;;;;;;;;;;26.20;99.90;;;;;;20971022;28;20107;-76
2023/07/07 09:36:27;;;;;;;;;;;26.70;99.90;;;;;;20987259;28;20294;-75
2023/07/07 09:46:34;;;;;;;;;;;26.30;99.90;;;;;;20995380;28;19923;-76
2023/07/07 09:56:38;;;;;;;;;;;27.90;99.80;;;;;;20986233;28;19916;-76
2023/07/07 10:06:48;;;;;;;;;;;28.50;97.90;;;;;;20964426;28;20002;-76
2023/07/07 10:17:10;;;;;;;;;;;27.90;99.90;;;;;;20985582;28;20378;-76
2023/07/07 10:27:11;;;;;;;;;;;29.30;99.80;;;;;;20993065;28;19923;-76
2023/07/07 10:37:31;;;;;;;;;;;28.70;97.00;;;;;;20983280;28;20268;-76
2023/07/07 10:47:33;;;;;;;;;;;29.90;96.20;;;;;;20979260;28;19917;-76
2023/07/07 10:57:37;;;;;;;;;;;31.00;95.00;;;;;;20975604;28;19966;-76
2023/07/07 11:07:40;;;;;;;;;;;29.90;94.70;;;;;;20983701;28;19916;-77
2023/07/07 11:17:47;;;;;;;;;;;29.70;94.70;;;;;;20977388;28;19913;-76
2023/07/07 11:27:47;;;;;;;;;;;30.70;96.10;;;;;;20982105;28;19964;-76
2023/07/07 11:38:01;;;;;;;;;;;30.50;94.50;;;;;;21010600;22;19924;-74
2023/07/07 11:48:04;;;;;;;;;;;31.40;94.20;;;;;;20997250;28;19916;-74
2023/07/07 11:58:25;;;;;;;;;;;32.50;91.20;;;;;;21055049;28;20373;-74
2023/07/07 12:08:35;;;;;;;;;;;33.00;89.30;;;;;;21022361;28;19927;-74
2023/07/07 12:18:37;;;;;;;;;;;33.20;85.30;;;;;;20995721;28;19912;-74
2023/07/07 12:28:39;;;;;;;;;;;32.00;85.30;;;;;;21002378;28;20081;-74
2023/07/07 12:38:41;;;;;;;;;;;32.30;85.40;;;;;;20985646;28;20007;-74
2023/07/07 12:48:43;;;;;;;;;;;32.70;82.50;;;;;;20977550;28;19917;-74
2023/07/07 12:58:48;;;;;;;;;;;31.70;87.10;;;;;;20963509;28;19928;-74
2023/07/07 13:09:01;;;;;;;;;;;31.30;84.80;;;;;;20985714;28;19916;-74
2023/07/07 13:19:02;;;;;;;;;;;32.90;80.30;;;;;;20998757;28;19965;-74
2023/07/07 13:29:03;;;;;;;;;;;31.60;81.40;;;;;;20997932;28;19923;-74
2023/07/07 13:39:06;;;;;;;;;;;33.30;79.70;;;;;;20998412;28;19923;-74
2023/07/07 13:49:14;;;;;;;;;;;33.10;80.80;;;;;;20995623;28;19917;-74
2023/07/07 13:59:23;;;;;;;;;;;32.50;80.50;;;;;;20994913;28;19917;-74
2023/07/07 14:09:37;;;;;;;;;;;32.50;83.90;;;;;;20990697;28;19923;-74
2023/07/07 14:19:50;;;;;;;;;;;32.40;78.30;;;;;;20967892;28;19913;-74
2023/07/07 14:29:51;;;;;;;;;;;32.90;76.50;;;;;;20992522;28;20299;-75
2023/07/07 14:39:51;;;;;;;;;;;33.70;74.50;;;;;;20974000;28;19959;-74
2023/07/07 14:49:54;;;;;;;;;;;33.60;72.00;;;;;;20990959;28;20233;-74
2023/07/07 14:59:55;;;;;;;;;;;33.70;74.80;;;;;;20965345;28;19917;-75
2023/07/07 15:09:58;;;;;;;;;;;33.00;72.60;;;;;;20957605;28;19917;-74
2023/07/07 15:19:59;;;;;;;;;;;32.90;69.30;;;;;;20988592;28;20065;-74
2023/07/07 15:30:00;;;;;;;;;;;33.50;70.20;;;;;;20990254;28;20386;-74
2023/07/07 15:40:00;;;;;;;;;;;33.00;69.70;;;;;;20989832;28;19940;-74
2023/07/07 15:50:01;;;;;;;;;;;32.70;71.30;;;;;;20988938;28;19917;-75
2023/07/07 16:00:11;;;;;;;;;;;32.70;69.80;;;;;;20988695;28;19912;-75
2023/07/07 16:10:12;;;;;;;;;;;32.00;73.60;;;;;;20988446;28;19917;-75
2023/07/07 16:20:18;;;;;;;;;;;31.50;72.90;;;;;;20999964;28;19920;-75
2023/07/07 16:30:29;;;;;;;;;;;31.40;71.40;;;;;;21016357;28;19916;-75
2023/07/07 16:40:33;;;;;;;;;;;31.50;71.60;;;;;;21055569;28;19931;-75
2023/07/07 16:50:34;;;;;;;;;;;31.40;72.60;;;;;;21040438;28;19920;-74
2023/07/07 17:00:36;;;;;;;;;;;30.70;73.50;;;;;;21004473;28;19921;-75
2023/07/07 17:10:38;;;;;;;;;;;30.70;73.90;;;;;;20997602;28;19917;-75
2023/07/07 17:20:39;;;;;;;;;;;31.30;74.70;;;;;;20996285;28;20264;-75
2023/07/07 17:30:39;;;;;;;;;;;31.20;73.90;;;;;;20944110;28;19920;-75
2023/07/07 17:40:42;;;;;;;;;;;31.10;75.70;;;;;;21005008;22;19935;-76
2023/07/07 17:50:47;;;;;;;;;;;31.00;77.50;;;;;;20992513;28;19916;-77
2023/07/07 18:00:48;;;;;;;;;;;30.70;77.80;;;;;;20995075;28;19912;-76
2023/07/07 18:10:48;;;;;;;;;;;30.80;83.80;;;;;;20994807;28;19939;-77
2023/07/07 18:20:49;;;;;;;;;;;31.70;86.40;;;;;;20994128;28;20283;-75
2023/07/07 18:30:54;;;;;;;;;;;31.60;85.70;;;;;;20993094;28;19928;-75
2023/07/07 18:40:55;;;;;;;;;;;31.20;84.70;;;;;;20983055;28;19955;-74
2023/07/07 18:50:56;;;;;;;;;;;28.80;90.90;;;;;;20974073;28;20290;-75
2023/07/07 19:00:56;;;;;;;;;;;27.00;92.20;;;;;;20992187;28;19912;-74
2023/07/07 19:10:57;;;;;;;;;;;26.40;92.80;;;;;;20990326;28;19917;-75
2023/07/07 19:20:58;;;;;;;;;;;25.80;93.70;;;;;;20990382;28;19958;-76
2023/07/07 19:30:58;;;;;;;;;;;25.50;93.60;;;;;;20984711;28;19916;-76
2023/07/07 19:41:00;;;;;;;;;;;25.30;93.60;;;;;;20984727;28;20322;-76
2023/07/07 19:51:02;;;;;;;;;;;25.10;93.10;;;;;;20999278;28;19920;-76
2023/07/07 20:01:09;;;;;;;;;;;24.70;93.70;;;;;;21012680;28;20405;-77
2023/07/07 20:11:17;;;;;;;;;;;24.20;94.90;;;;;;20993829;28;19959;-77
2023/07/07 20:21:19;;;;;;;;;;;24.30;94.50;;;;;;21001818;28;20316;-76
2023/07/07 20:31:20;;;;;;;;;;;24.00;95.40;;;;;;21003446;28;19962;-76
2023/07/07 20:41:22;;;;;;;;;;;23.70;96.80;;;;;;21024828;28;19920;-76
2023/07/07 20:51:23;;;;;;;;;;;23.20;98.50;;;;;;21034527;28;19928;-75
2023/07/07 21:01:24;;;;;;;;;;;23.20;98.20;;;;;;21013092;28;19912;-75
2023/07/07 21:11:25;;;;;;;;;;;23.30;97.10;;;;;;20982357;28;19964;-75
2023/07/07 21:21:26;;;;;;;;;;;23.30;96.60;;;;;;21035571;28;20028;-74
2023/07/07 21:31:29;;;;;;;;;;;23.10;97.40;;;;;;21015501;28;20026;-75
2023/07/07 21:41:30;;;;;;;;;;;23.00;97.70;;;;;;21031770;28;19924;-74
2023/07/07 21:51:31;;;;;;;;;;;22.90;97.10;;;;;;21004318;28;20397;-77
2023/07/07 22:01:31;;;;;;;;;;;22.90;97.70;;;;;;21026694;28;19920;-76
2023/07/07 22:11:32;;;;;;;;;;;22.60;97.90;;;;;;21029638;28;19917;-75
2023/07/07 22:21:32;;;;;;;;;;;22.30;99.10;;;;;;21027612;28;19959;-74
2023/07/07 22:31:33;;;;;;;;;;;21.60;99.90;;;;;;21028351;28;20352;-75
2023/07/07 22:41:34;;;;;;;;;;;21.50;99.90;;;;;;21035371;28;19921;-75
2023/07/07 22:51:37;;;;;;;;;;;21.10;99.90;;;;;;21017319;28;20293;-75
2023/07/07 23:01:37;;;;;;;;;;;21.40;99.90;;;;;;21023523;28;20007;-75
2023/07/07 23:11:38;;;;;;;;;;;21.60;99.90;;;;;;21018104;28;19947;-75
2023/07/07 23:21:39;;;;;;;;;;;21.60;99.90;;;;;;20968794;28;19913;-76
2023/07/07 23:31:39;;;;;;;;;;;21.60;99.90;;;;;;21048581;22;19948;-74
2023/07/07 23:41:40;;;;;;;;;;;21.00;99.90;;;;;;21019223;28;19935;-74
2023/07/07 23:51:40;;;;;;;;;;;19.00;99.90;;;;;;21013751;28;19927;-74
